METAR stanice u blizini

 

LYBE - Beograd / Surčin, Srbija
Ažurirano: 27/01/2023 06:30
Sneg, Oblačno
Sneg, Oblačno
 Pravac vetra S
Vetar: S 11 km/h
Temperatura: 0°C
Osećaj hladnoće: -4°C
Tačka rose: 0°C
Vlažnost: 100%
Pritisak: 1012 hPa
Pregled: Sneg
Oblaci: Oblačno
Vidljivost: 3 km
Cloud details: Mostly Cloudy 122 m
Oblačno 823 m
2023/01/27 05:30 LYBE 270530Z 35006KT 3000 SN BKN004 OVC027 00/00 Q1012 NOSIG
LYBT - Beograd / Batajnica, Srbija
Ažurirano: 27/01/2023 06:30
Sneg, Oblačno
Sneg, Oblačno
 Pravac vetra S
Vetar: S 11 km/h
Temperatura: 0°C
Osećaj hladnoće: -4°C
Tačka rose: 0°C
Vlažnost: 100%
Pritisak: 1013 hPa
Pregled: Sneg
Oblaci: Oblačno
Vidljivost: 3 km
Cloud details: Mostly Cloudy 152 m
Oblačno 762 m
2023/01/27 05:30 LYBT 270530Z 35006KT 3000 SN BKN005 OVC025 00/00 Q1013 NOSIG
LYVR - Vršac, Srbija
Ažurirano: 27/01/2023 06:30
Light snow, Mist, Oblačno
Light snow, Mist, Oblačno
 Pravac vetra SSI
Vetar: SSI 7 km/h
Temperatura: 0°C
Osećaj hladnoće: -3°C
Tačka rose: 0°C
Vlažnost: 100%
Pritisak: 1012 hPa
Pregled: Light snow, Mist
Oblaci: Oblačno
Vidljivost: 4 km
Cloud details: Mostly Cloudy 30 m
Oblačno 762 m
2023/01/27 05:30 LYVR 270530Z AUTO 03004KT 350V050 4300 -SN BR BKN001/// OVC025/// 00/00 Q1012
 
LYKV - Lađevci, Srbija
Ažurirano: 27/01/2023 06:30
Light snow, Oblačno
Light snow, Oblačno
 Pravac vetra ZSZ
Vetar: ZSZ 7 km/h
Temperatura: 0°C
Osećaj hladnoće: -3°C
Tačka rose: 0°C
Vlažnost: 100%
Pritisak: 1011 hPa
Pregled: Light Snow
Oblaci: Oblačno
Vidljivost: 8 km
Cloud details: Mostly Cloudy 305 m
Oblačno 823 m
2023/01/27 05:30 LYKV 270530Z 29004KT 250V320 8000 -SN BKN010 OVC027 M00/M00 Q1011 NOSIG
LYNI - Niš, Srbija
Ažurirano: 27/01/2023 06:30
Light snow, Pretežno oblačno
Light snow, Pretežno oblačno
 Pravac vetra SSZ
Vetar: SSZ 15 km/h
Temperatura: 0°C
Osećaj hladnoće: -4°C
Tačka rose: -1°C
Vlažnost: 93%
Pritisak: 1010 hPa
Pregled: Light Snow
Oblaci: Mostly Cloudy
Vidljivost: 10 km
Cloud details: Partly Cloudy 244 m
Mostly Cloudy 1006 m
2023/01/27 05:30 LYNI 270530Z 33008KT 290V350 9999 -SN SCT008 BKN033 M00/M01 Q1010 NOSIG
BKPR - Priština, Srbija
Ažurirano: 27/01/2023 06:30
Mostly Cloudy
Mostly Cloudy
 Pravac vetra SSI
Vetar: SSI 19 km/h
Temperatura: -1°C
Osećaj hladnoće: -7°C
Tačka rose: -3°C
Vlažnost: 86%
Pritisak: 1008 hPa
Oblaci: Mostly Cloudy
Vidljivost: 10 km
Cloud details: Few Clouds 427 m
Mostly Cloudy 1219 m
2023/01/27 05:30 BKPR 270530Z 02010KT 9999 FEW014 BKN040 M01/M03 Q1008 NOSIG
 
LHPP - Pecs / Pogany, Hungary
Ažurirano: 27/01/2023 06:15
Light snow, Oblačno
Light snow, Oblačno
 Pravac vetra SSI
Vetar: SSI 15 km/h
Temperatura: 0°C
Osećaj hladnoće: -4°C
Tačka rose: -2°C
Vlažnost: 87%
Pritisak: 1014 hPa
Pregled: Light Snow
Oblaci: Oblačno
Vidljivost: 10 km
Cloud details: Oblačno 1158 m
2023/01/27 05:15 LHPP 270515Z AUTO 03008KT 9999 -SN OVC038 M00/M02 Q1014
LHUD - Szeged, Hungary
Ažurirano: 04/07/2019 01:45
NOT Current
Vedro
Vedro
 Pravac vetra S
Vetar: S 7 km/h
Temperatura: 18°C
Tačka rose: 13°C
Vlažnost: 73%
Pritisak: 1019 hPa
Pregled: Vedro
Vidljivost: greater than 10 km
2019/07/03 23:45 LHUD 032345Z 35004KT CAVOK 18/13 Q1019
LRTR - Timisoara, Romania
Ažurirano: 27/01/2023 06:30
Slaba kiša, Sneg, Mist, Oblačno
Slaba kiša, Sneg, Mist, Oblačno
 Pravac vetra S
Vetar: S 15 km/h
Temperatura: 0°C
Osećaj hladnoće: -4°C
Tačka rose: 0°C
Vlažnost: 100%
Pritisak: 1012 hPa
Pregled: Slaba kiša, Sneg, Mist
Oblaci: Oblačno
Vidljivost: 5 km
Cloud details: Mostly Cloudy 335 m
Oblačno 823 m
2023/01/27 05:30 LRTR 270530Z 01008KT 5000 -RASN BR BKN011 OVC027 00/00 Q1012
 
LRCV - Craiova, Romania
Ažurirano: 27/01/2023 06:30
Slaba kiša, Mist, Oblačno
Slaba kiša, Mist, Oblačno
 Pravac vetra ISI
Vetar: ISI 39 km/h
Temperatura: 1°C
Osećaj hladnoće: -6°C
Tačka rose: 0°C
Vlažnost: 93%
Pritisak: 1009 hPa
Pregled: Slaba kiša, Mist
Oblaci: Oblačno
Vidljivost: 3 km
Cloud details: Few Clouds 183 m
Mostly Cloudy 274 m
Oblačno 427 m
2023/01/27 05:30 LRCV 270530Z 06021KT 3000 -RA BR FEW006 BKN009 OVC014 01/00 Q1009
LBSF - Sofia, Bulgaria
Ažurirano: 27/01/2023 06:30
Light snow, Oblačno
Light snow, Oblačno
 Pravac vetra SZ
Vetar: SZ 6 km/h
Temperatura: -1°C
Tačka rose: -1°C
Vlažnost: 100%
Pritisak: 1007 hPa
Pregled: Light Snow
Oblaci: Oblačno
Vidljivost: 6 km
Cloud details: Mostly Cloudy 91 m
Mostly Cloudy 213 m
Oblačno 366 m
2023/01/27 05:30 LBSF 270530Z 31003KT 280V340 6000 -SN BKN003 BKN007 OVC012 M01/M01 Q1007 TEMPO SCT002
LWSK - Skoplje, Makedonija
Ažurirano: 27/01/2023 06:30
Oblačno
Oblačno
 Pravac vetra calm
Vetar: Tišina
Temperatura: 2°C
Tačka rose: 0°C
Vlažnost: 87%
Pritisak: 1008 hPa
Oblaci: Oblačno
Vidljivost: 10 km
Cloud details: Few Clouds 610 m
Oblačno 1006 m
2023/01/27 05:30 LWSK 270530Z 00000KT 9999 FEW020 OVC033 02/00 Q1008 NOSIG
 
LYPG - Podgorica, Crna Gora
Ažurirano: 27/01/2023 06:30
Mostly Cloudy
Mostly Cloudy
 Pravac vetra S
Vetar: S 17 km/h
Temperatura: 7°C
Osećaj hladnoće: 4°C
Tačka rose: -3°C
Vlažnost: 49%
Pritisak: 1006 hPa
Oblaci: Mostly Cloudy
Vidljivost: 10 km
Cloud details: Few Clouds 1219 m
Partly Cloudy 1524 m
Mostly Cloudy 2134 m
2023/01/27 05:30 LYPG 270530Z 01009KT 330V030 9999 FEW040 SCT050 BKN070 07/M03 Q1006 NOSIG
LQSA - Sarajevo, Bosna i Hercegovina
Ažurirano: 27/01/2023 06:30
Light snow, Oblačno
Light snow, Oblačno
 Pravac vetra ZSZ
Vetar: ZSZ 9 km/h
Temperatura: -2°C
Osećaj hladnoće: -6°C
Tačka rose: -2°C
Vlažnost: 100%
Pritisak: 1010 hPa
Pregled: Light Snow
Oblaci: Oblačno
Vidljivost: 8 km
Cloud details: Few Clouds 457 m
Oblačno 762 m
2023/01/27 05:30 LQSA 270530Z 30005KT 8000 -SN FEW015 OVC025 M02/M02 Q1010 NOSIG
LDOS - Osijek, Hrvatksa
Ažurirano: 27/01/2023 06:30
Light snow, Oblačno
Light snow, Oblačno
 Pravac vetra SSZ
Vetar: SSZ 13 km/h
Temperatura: 0°C
Osećaj hladnoće: -4°C
Tačka rose: -1°C
Vlažnost: 93%
Pritisak: 1014 hPa
Pregled: Light Snow
Oblaci: Oblačno
Vidljivost: 10 km
Cloud details: Mostly Cloudy 213 m
Oblačno 305 m
2023/01/27 05:30 LDOS 270530Z 34007KT 9999 -SN BKN007 OVC010 00/M01 Q1014